Time;durP1;ratioP1;P1;durP2;ratioP2;P2;SDS_P1;SDS_P2;PMS_P1;PMS_P2;Temp;Humidity;BMP_temperature;BMP_pressure;BME280_temperature;BME280_humidity;BME280_pressure;Samples;Min_cycle;Max_cycle;Signal;HPM_P1;HPM_P2
2020/12/15 00:00:27;;;;;;;2.95;2.30;;;13.20;59.30;;;;;;2094903;28;20152;-75
2020/12/15 00:01:28;;;;;;;3.38;1.98;;;13.20;59.30;;;;;;2087533;28;20032;-75
2020/12/15 00:02:28;;;;;;;3.38;2.00;;;13.20;59.40;;;;;;2091991;28;20479;-75
2020/12/15 00:03:29;;;;;;;2.00;1.85;;;13.20;59.50;;;;;;2094683;28;20116;-74
2020/12/15 00:04:29;;;;;;;2.50;1.80;;;13.20;59.50;;;;;;2103778;28;20127;-74
2020/12/15 00:05:30;;;;;;;2.63;2.13;;;13.20;59.60;;;;;;2103306;28;20111;-74
2020/12/15 00:06:34;;;;;;;1.90;1.80;;;13.20;59.50;;;;;;2103819;28;20028;-74
2020/12/15 00:07:36;;;;;;;2.53;2.33;;;13.30;59.50;;;;;;2111562;28;20453;-74
2020/12/15 00:08:36;;;;;;;2.47;2.25;;;13.30;59.60;;;;;;2111368;28;20023;-75
2020/12/15 00:09:37;;;;;;;2.55;1.83;;;13.30;59.60;;;;;;2111993;28;20436;-74
2020/12/15 00:10:38;;;;;;;2.75;2.03;;;13.30;59.50;;;;;;2111669;28;20026;-73
2020/12/15 00:11:38;;;;;;;2.88;2.33;;;13.30;59.60;;;;;;2103711;28;20027;-75
2020/12/15 00:12:41;;;;;;;2.20;2.00;;;13.30;59.60;;;;;;2103404;28;20032;-76
2020/12/15 00:13:44;;;;;;;2.30;2.00;;;13.20;59.60;;;;;;2111528;28;20110;-76
2020/12/15 00:14:45;;;;;;;2.30;2.10;;;13.30;59.70;;;;;;2110430;28;20035;-75
2020/12/15 00:15:45;;;;;;;2.65;2.00;;;13.30;59.70;;;;;;2111819;28;20055;-76
2020/12/15 00:16:46;;;;;;;3.72;2.13;;;13.20;59.80;;;;;;2111623;28;20039;-75
2020/12/15 00:17:46;;;;;;;2.42;2.05;;;13.30;59.90;;;;;;2112006;28;20469;-76
2020/12/15 00:18:47;;;;;;;2.88;2.30;;;13.30;60.00;;;;;;2111903;28;20466;-75
2020/12/15 00:19:48;;;;;;;3.17;2.17;;;13.30;60.20;;;;;;2112772;28;20027;-75
2020/12/15 00:20:48;;;;;;;2.53;2.22;;;13.20;60.20;;;;;;2112095;28;20434;-75
2020/12/15 00:21:49;;;;;;;3.03;2.45;;;13.20;60.40;;;;;;2112710;28;20024;-75
2020/12/15 00:22:49;;;;;;;2.72;2.22;;;13.20;60.50;;;;;;2094275;28;20024;-75
2020/12/15 00:23:52;;;;;;;2.80;2.10;;;13.20;61.40;;;;;;2086553;28;20036;-74
2020/12/15 00:24:53;;;;;;;2.42;2.05;;;13.20;60.70;;;;;;2102922;28;20024;-75
2020/12/15 00:25:53;;;;;;;2.83;2.05;;;13.20;60.70;;;;;;2112105;28;20755;-75
2020/12/15 00:26:55;;;;;;;2.40;2.20;;;13.20;60.80;;;;;;2095229;28;20090;-75
2020/12/15 00:27:55;;;;;;;1.80;1.63;;;13.20;60.80;;;;;;2094923;28;20354;-75
2020/12/15 00:28:56;;;;;;;4.32;2.33;;;13.20;60.70;;;;;;2111051;28;20031;-75
2020/12/15 00:29:56;;;;;;;3.08;2.10;;;13.20;60.80;;;;;;2111470;28;20036;-75
2020/12/15 00:30:57;;;;;;;2.42;2.15;;;13.20;60.90;;;;;;2111263;28;20024;-76
2020/12/15 00:31:57;;;;;;;2.80;1.95;;;13.20;60.90;;;;;;2111839;28;20028;-76
2020/12/15 00:32:58;;;;;;;2.95;2.13;;;13.20;61.00;;;;;;2093850;28;20054;-75
2020/12/15 00:33:59;;;;;;;2.30;2.10;;;13.20;61.20;;;;;;2087317;28;20127;-75
2020/12/15 00:34:59;;;;;;;2.22;2.03;;;13.20;61.20;;;;;;2103603;28;20664;-75
2020/12/15 00:36:00;;;;;;;2.85;2.00;;;13.10;61.00;;;;;;2111587;28;20468;-75
2020/12/15 00:37:00;;;;;;;2.15;1.95;;;13.10;61.10;;;;;;2103699;28;20855;-75
2020/12/15 00:38:01;;;;;;;2.85;2.25;;;13.10;61.20;;;;;;2103132;28;20035;-75
2020/12/15 00:39:02;;;;;;;2.42;2.20;;;13.10;61.20;;;;;;2101701;28;20028;-76
2020/12/15 00:40:04;;;;;;;3.67;2.30;;;13.10;61.30;;;;;;2103884;28;20111;-75
2020/12/15 00:41:04;;;;;;;2.80;2.20;;;13.10;61.50;;;;;;2111677;28;20134;-75
2020/12/15 00:42:06;;;;;;;2.75;2.33;;;13.10;61.60;;;;;;2112421;28;20871;-75
2020/12/15 00:43:06;;;;;;;3.47;2.47;;;13.10;61.60;;;;;;2110815;28;20129;-75
2020/12/15 00:44:07;;;;;;;2.00;1.90;;;13.10;61.70;;;;;;2111846;28;20669;-75
2020/12/15 00:45:08;;;;;;;2.30;2.10;;;13.10;61.80;;;;;;2111360;28;20050;-75
2020/12/15 00:46:15;;;;;;;2.22;2.03;;;13.10;61.80;;;;;;2110267;28;20161;-75
2020/12/15 00:47:16;;;;;;;2.83;2.58;;;13.10;62.00;;;;;;2103598;28;20050;-76
2020/12/15 00:48:17;;;;;;;2.70;2.00;;;13.00;62.00;;;;;;2094908;28;20127;-75
2020/12/15 00:49:18;;;;;;;3.55;2.13;;;13.00;62.10;;;;;;2102289;28;20031;-74
2020/12/15 00:50:18;;;;;;;2.60;2.03;;;13.00;62.00;;;;;;2111916;28;20020;-75
2020/12/15 00:51:20;;;;;;;5.43;2.75;;;13.00;62.10;;;;;;2112011;28;20077;-75
2020/12/15 00:52:24;;;;;;;3.65;2.45;;;13.00;62.20;;;;;;2102446;28;20039;-75
2020/12/15 00:53:25;;;;;;;2.30;2.10;;;13.00;62.30;;;;;;2103050;28;20469;-74
2020/12/15 00:54:26;;;;;;;2.20;2.00;;;13.00;62.20;;;;;;2111488;28;20110;-74
2020/12/15 00:55:26;;;;;;;2.33;2.00;;;13.00;62.20;;;;;;2103249;28;20095;-74
2020/12/15 00:56:27;;;;;;;4.10;2.25;;;13.00;62.30;;;;;;2102091;28;20032;-74
2020/12/15 00:57:27;;;;;;;3.42;2.45;;;13.00;62.40;;;;;;2111286;28;20046;-74
2020/12/15 00:58:28;;;;;;;4.15;2.35;;;13.00;62.60;;;;;;2112236;28;20059;-74
2020/12/15 00:59:28;;;;;;;3.70;2.38;;;12.90;62.60;;;;;;2111438;28;20023;-75
2020/12/15 01:00:29;;;;;;;2.15;1.95;;;12.90;62.70;;;;;;2110854;28;20563;-74
2020/12/15 01:01:29;;;;;;;2.30;2.10;;;12.90;62.70;;;;;;2093775;28;20036;-74
2020/12/15 01:02:30;;;;;;;3.97;2.45;;;12.90;62.70;;;;;;2093892;28;20077;-74
2020/12/15 01:03:31;;;;;;;3.03;2.13;;;12.90;62.70;;;;;;2111774;28;20125;-74
2020/12/15 01:04:31;;;;;;;8.93;2.35;;;12.90;62.80;;;;;;2112229;28;20031;-74
2020/12/15 01:05:32;;;;;;;2.40;2.20;;;12.90;63.00;;;;;;2111768;28;20069;-74
2020/12/15 01:06:32;;;;;;;2.25;2.10;;;12.90;63.00;;;;;;2111187;28;20527;-74
2020/12/15 01:07:33;;;;;;;2.65;2.28;;;12.90;63.10;;;;;;2112090;28;20027;-75
2020/12/15 01:08:34;;;;;;;2.90;2.45;;;12.90;63.20;;;;;;2101441;28;20046;-74
2020/12/15 01:09:34;;;;;;;3.67;2.53;;;12.90;63.20;;;;;;2102979;28;20027;-74
2020/12/15 01:10:35;;;;;;;2.83;2.10;;;12.90;63.20;;;;;;2093808;28;20138;-74
2020/12/15 01:11:35;;;;;;;2.72;2.40;;;12.80;63.20;;;;;;2095767;28;20043;-74
2020/12/15 01:12:36;;;;;;;3.67;2.40;;;12.90;63.40;;;;;;2102731;28;20025;-74
2020/12/15 01:13:36;;;;;;;4.63;2.40;;;12.90;63.50;;;;;;2103845;28;20042;-74
2020/12/15 01:14:37;;;;;;;3.65;2.03;;;12.80;63.60;;;;;;2112254;28;20027;-74
2020/12/15 01:15:37;;;;;;;2.15;2.03;;;12.80;63.60;;;;;;2104223;28;20085;-74
2020/12/15 01:16:39;;;;;;;3.58;2.28;;;12.80;63.70;;;;;;2103861;28;20020;-73
2020/12/15 01:17:40;;;;;;;2.65;2.22;;;12.80;63.70;;;;;;2112885;28;20070;-74
2020/12/15 01:18:40;;;;;;;2.60;2.17;;;12.80;63.80;;;;;;2095607;28;20020;-75
2020/12/15 01:19:41;;;;;;;3.03;2.40;;;12.80;63.90;;;;;;2096009;28;20032;-74
2020/12/15 01:20:42;;;;;;;3.92;2.30;;;12.80;63.90;;;;;;2113257;28;20166;-74
2020/12/15 01:21:42;;;;;;;2.35;2.15;;;12.80;63.90;;;;;;2113145;28;20023;-74
2020/12/15 01:22:43;;;;;;;3.03;2.22;;;12.80;63.90;;;;;;2112988;28;20027;-73
2020/12/15 01:23:43;;;;;;;2.47;2.28;;;12.80;63.80;;;;;;2113272;28;20057;-74
2020/12/15 01:24:44;;;;;;;3.67;2.20;;;12.80;63.80;;;;;;2113327;28;20429;-74
2020/12/15 01:25:44;;;;;;;2.30;2.10;;;12.80;63.80;;;;;;2112958;28;20442;-76
2020/12/15 01:26:45;;;;;;;3.28;2.47;;;12.80;63.90;;;;;;2112411;28;20401;-73
2020/12/15 01:27:46;;;;;;;3.33;2.78;;;12.80;63.90;;;;;;2112986;28;20082;-76
2020/12/15 01:28:47;;;;;;;2.33;2.08;;;12.80;64.00;;;;;;2112820;28;20377;-75
2020/12/15 01:29:48;;;;;;;2.97;2.28;;;12.80;64.10;;;;;;2111868;28;20124;-76
2020/12/15 01:30:48;;;;;;;2.60;2.40;;;12.70;64.10;;;;;;2112648;28;20062;-75
2020/12/15 01:31:49;;;;;;;3.38;2.33;;;12.70;64.20;;;;;;2103202;28;20032;-75
2020/12/15 01:32:49;;;;;;;2.70;2.17;;;12.70;64.20;;;;;;2103903;28;20019;-74
2020/12/15 01:33:52;;;;;;;2.50;2.30;;;12.70;64.20;;;;;;2113666;28;20358;-73
2020/12/15 01:34:52;;;;;;;2.40;2.13;;;12.70;64.30;;;;;;2103766;28;20069;-74
2020/12/15 01:35:54;;;;;;;2.60;2.13;;;12.70;64.30;;;;;;2104308;28;20518;-74
2020/12/15 01:36:56;;;;;;;2.20;2.00;;;12.70;65.10;;;;;;2104173;28;20023;-73
2020/12/15 01:37:56;;;;;;;2.63;2.08;;;12.70;64.50;;;;;;2112881;28;20012;-75
2020/12/15 01:38:58;;;;;;;3.00;2.30;;;12.70;64.50;;;;;;2112332;28;20019;-76
2020/12/15 01:39:58;;;;;;;2.25;2.03;;;12.70;64.50;;;;;;2113329;28;20413;-75
2020/12/15 01:40:59;;;;;;;3.30;2.40;;;12.70;64.60;;;;;;2095745;28;20087;-75
2020/12/15 01:41:59;;;;;;;2.28;2.03;;;12.70;64.70;;;;;;2095291;28;20039;-75
2020/12/15 01:43:00;;;;;;;2.75;2.35;;;12.70;64.80;;;;;;2103960;28;20039;-75
2020/12/15 01:44:03;;;;;;;2.30;2.10;;;12.70;64.80;;;;;;2095756;28;20008;-75
2020/12/15 01:45:05;;;;;;;2.63;2.20;;;12.70;64.90;;;;;;2102089;28;20051;-75
2020/12/15 01:46:06;;;;;;;3.25;2.20;;;12.70;65.00;;;;;;2112064;28;20027;-75
2020/12/15 01:47:06;;;;;;;2.50;2.30;;;12.70;65.00;;;;;;2113092;28;20021;-75
2020/12/15 01:48:07;;;;;;;2.45;2.25;;;12.70;65.00;;;;;;2104555;28;20016;-75
2020/12/15 01:49:08;;;;;;;2.30;2.10;;;12.70;65.20;;;;;;2103451;28;20032;-75
2020/12/15 01:50:09;;;;;;;2.35;2.10;;;12.60;65.10;;;;;;2113324;28;20019;-75
2020/12/15 01:51:09;;;;;;;2.53;2.17;;;12.70;65.10;;;;;;2113243;28;20042;-75
2020/12/15 01:52:13;;;;;;;3.30;2.00;;;12.60;65.10;;;;;;2113021;28;20319;-76
2020/12/15 01:53:13;;;;;;;2.40;2.20;;;12.70;65.10;;;;;;2112311;28;20031;-76
2020/12/15 01:54:14;;;;;;;3.58;2.60;;;12.60;65.10;;;;;;2104634;28;20547;-75
2020/12/15 01:55:16;;;;;;;2.60;2.40;;;12.60;65.10;;;;;;2095190;28;20043;-75
2020/12/15 01:56:17;;;;;;;2.50;2.30;;;12.70;65.30;;;;;;2101078;28;20107;-75
2020/12/15 01:57:18;;;;;;;3.15;2.33;;;12.70;65.30;;;;;;2113392;28;20034;-75
2020/12/15 01:58:18;;;;;;;2.80;2.30;;;12.60;65.30;;;;;;2104164;28;20027;-75
2020/12/15 01:59:22;;;;;;;4.43;2.83;;;12.60;65.40;;;;;;2102989;28;20020;-76
2020/12/15 02:00:22;;;;;;;3.65;2.35;;;12.60;66.10;;;;;;2112383;28;20361;-75
2020/12/15 02:01:24;;;;;;;2.40;2.20;;;12.60;65.40;;;;;;2111703;28;20074;-75
2020/12/15 02:02:25;;;;;;;2.55;2.35;;;12.60;65.50;;;;;;2113157;28;20029;-75
2020/12/15 02:03:25;;;;;;;3.17;2.22;;;12.60;65.50;;;;;;2113324;28;20046;-76
2020/12/15 02:04:26;;;;;;;2.35;2.15;;;12.60;65.50;;;;;;2112695;28;20532;-76
2020/12/15 02:05:26;;;;;;;2.63;2.40;;;12.60;65.50;;;;;;2112344;28;20069;-75
2020/12/15 02:06:27;;;;;;;2.67;2.30;;;12.60;65.50;;;;;;2113323;28;20036;-75
2020/12/15 02:07:28;;;;;;;5.82;2.53;;;12.60;66.20;;;;;;2103980;28;20521;-75
2020/12/15 02:08:29;;;;;;;2.85;2.40;;;12.60;65.50;;;;;;2103665;28;20069;-75
2020/12/15 02:09:30;;;;;;;2.83;2.63;;;12.60;65.60;;;;;;2112865;28;20039;-75
2020/12/15 02:10:31;;;;;;;2.78;2.17;;;12.60;65.60;;;;;;2112745;28;20027;-76
2020/12/15 02:11:32;;;;;;;4.10;2.60;;;12.60;65.60;;;;;;2104188;28;20036;-75
2020/12/15 02:12:32;;;;;;;3.42;2.50;;;12.60;65.60;;;;;;2103755;28;20177;-75
2020/12/15 02:13:33;;;;;;;3.08;2.22;;;12.60;65.60;;;;;;2112840;28;20020;-75
2020/12/15 02:14:34;;;;;;;3.75;2.60;;;12.60;65.60;;;;;;2102446;28;20024;-74
2020/12/15 02:15:34;;;;;;;2.30;2.10;;;12.60;65.80;;;;;;2103648;28;20533;-74
2020/12/15 02:16:38;;;;;;;2.90;2.47;;;12.60;65.80;;;;;;2112010;28;20102;-74
2020/12/15 02:17:39;;;;;;;2.95;2.50;;;12.60;66.00;;;;;;2112964;28;20032;-75
2020/12/15 02:18:40;;;;;;;2.55;2.33;;;12.60;66.00;;;;;;2112357;28;20122;-74
2020/12/15 02:19:41;;;;;;;2.50;2.30;;;12.60;66.00;;;;;;2113024;28;20034;-75
2020/12/15 02:20:41;;;;;;;3.13;2.80;;;12.60;66.20;;;;;;2100578;28;20067;-75
2020/12/15 02:21:49;;;;;;;4.18;2.95;;;12.60;66.10;;;;;;2099987;28;20040;-76
2020/12/15 02:22:49;;;;;;;4.82;2.78;;;12.60;66.20;;;;;;2110969;28;20863;-76
2020/12/15 02:23:50;;;;;;;3.20;2.70;;;12.60;66.10;;;;;;2112248;28;20031;-73
2020/12/15 02:24:50;;;;;;;2.97;2.78;;;12.60;66.10;;;;;;2112322;28;20104;-74
2020/12/15 02:25:51;;;;;;;3.28;2.97;;;12.60;66.10;;;;;;2103717;28;20042;-74
2020/12/15 02:26:52;;;;;;;3.10;2.72;;;12.60;66.10;;;;;;2104106;28;20048;-74
2020/12/15 02:27:53;;;;;;;3.65;3.20;;;12.60;66.10;;;;;;2112461;28;20035;-73
2020/12/15 02:28:54;;;;;;;3.97;3.33;;;12.60;66.10;;;;;;2110893;28;20119;-75
2020/12/15 02:29:54;;;;;;;3.20;2.92;;;12.60;66.10;;;;;;2111903;28;20494;-76
2020/12/15 02:30:55;;;;;;;4.07;2.90;;;12.60;66.20;;;;;;2103274;28;20587;-75
2020/12/15 02:31:55;;;;;;;6.50;3.70;;;12.60;66.30;;;;;;2095501;28;20052;-75
2020/12/15 02:32:56;;;;;;;5.60;3.42;;;12.60;66.20;;;;;;2102931;28;20036;-75
2020/12/15 02:33:56;;;;;;;3.53;3.22;;;12.60;66.30;;;;;;2112901;28;20108;-75
2020/12/15 02:34:57;;;;;;;4.07;3.50;;;12.60;66.30;;;;;;2112732;28;20043;-75
2020/12/15 02:35:58;;;;;;;4.05;2.88;;;12.60;66.30;;;;;;2112687;28;20034;-74
2020/12/15 02:37:07;;;;;;;3.72;2.92;;;12.60;66.40;;;;;;2102073;28;20352;-76
2020/12/15 02:38:08;;;;;;;4.30;3.22;;;12.60;66.50;;;;;;2105007;28;20560;-75
2020/12/15 02:39:12;;;;;;;3.95;3.22;;;12.60;66.40;;;;;;2111838;28;20045;-75
2020/12/15 02:40:13;;;;;;;3.90;3.25;;;12.60;66.40;;;;;;2112105;28;20038;-75
2020/12/15 02:41:13;;;;;;;3.95;3.10;;;12.60;66.40;;;;;;2112833;28;20110;-76
2020/12/15 02:42:14;;;;;;;3.88;3.13;;;12.60;66.40;;;;;;2098368;28;20115;-75
2020/12/15 02:43:15;;;;;;;4.85;2.83;;;12.60;66.30;;;;;;2099028;28;20046;-75
2020/12/15 02:44:15;;;;;;;3.53;3.15;;;12.60;66.30;;;;;;2103020;28;20039;-75
2020/12/15 02:45:16;;;;;;;3.25;2.95;;;12.60;66.40;;;;;;2112005;28;20031;-75
2020/12/15 02:46:16;;;;;;;3.70;3.40;;;12.60;66.30;;;;;;2111436;28;20031;-76
2020/12/15 02:47:17;;;;;;;5.07;3.33;;;12.60;66.30;;;;;;2104313;28;20036;-75
2020/12/15 02:48:18;;;;;;;5.03;3.10;;;12.60;66.40;;;;;;2095452;28;20107;-75
2020/12/15 02:49:18;;;;;;;6.55;3.13;;;12.60;66.40;;;;;;2101255;28;20039;-75
2020/12/15 02:50:23;;;;;;;3.97;3.40;;;12.60;66.40;;;;;;2113134;28;20038;-73
2020/12/15 02:51:24;;;;;;;3.80;3.13;;;12.50;66.40;;;;;;2103822;28;20047;-75
2020/12/15 02:52:25;;;;;;;4.57;3.13;;;12.60;66.40;;;;;;2103337;28;20125;-75
2020/12/15 02:53:25;;;;;;;3.90;3.20;;;12.60;66.40;;;;;;2112768;28;20019;-75
2020/12/15 02:54:26;;;;;;;4.22;3.60;;;12.50;66.40;;;;;;2112777;28;20035;-75
2020/12/15 02:55:26;;;;;;;5.72;3.28;;;12.50;66.40;;;;;;2113132;28;20036;-75
2020/12/15 02:56:27;;;;;;;4.53;3.33;;;12.50;66.40;;;;;;2112922;28;20100;-75
2020/12/15 02:57:28;;;;;;;3.58;3.00;;;12.50;66.40;;;;;;2111704;28;20093;-75
2020/12/15 02:58:28;;;;;;;4.15;3.13;;;12.50;66.40;;;;;;2112187;28;20031;-75
2020/12/15 02:59:29;;;;;;;3.70;3.40;;;12.50;66.40;;;;;;2103337;28;20063;-75
2020/12/15 03:00:29;;;;;;;3.75;3.40;;;12.50;66.40;;;;;;2103196;28;20102;-76
2020/12/15 03:01:30;;;;;;;4.07;3.15;;;12.50;66.40;;;;;;2111820;28;20032;-75
2020/12/15 03:02:30;;;;;;;4.43;3.15;;;12.50;66.40;;;;;;2112517;28;20016;-75
2020/12/15 03:03:31;;;;;;;3.95;3.42;;;12.50;66.50;;;;;;2112364;28;20438;-75
2020/12/15 03:04:31;;;;;;;4.30;3.53;;;12.50;66.50;;;;;;2112784;28;20412;-75
2020/12/15 03:05:32;;;;;;;4.32;3.50;;;12.50;66.50;;;;;;2113101;28;20820;-75
2020/12/15 03:06:33;;;;;;;6.32;3.90;;;12.50;66.60;;;;;;2112487;28;20042;-75
2020/12/15 03:07:33;;;;;;;3.83;3.40;;;12.50;66.60;;;;;;2112767;28;20023;-75
2020/12/15 03:08:34;;;;;;;4.03;3.47;;;12.40;66.50;;;;;;2112870;28;20458;-75
2020/12/15 03:09:35;;;;;;;4.47;3.30;;;12.40;66.60;;;;;;2099803;28;20058;-75
2020/12/15 03:10:35;;;;;;;4.78;3.70;;;12.40;66.60;;;;;;2100934;28;20036;-75
2020/12/15 03:11:36;;;;;;;5.55;3.40;;;12.40;66.60;;;;;;2112743;28;20584;-75
2020/12/15 03:12:37;;;;;;;4.32;3.40;;;12.40;66.70;;;;;;2103189;28;20036;-75
2020/12/15 03:13:38;;;;;;;4.40;3.20;;;12.40;66.70;;;;;;2104025;28;20020;-75
2020/12/15 03:14:39;;;;;;;3.63;3.30;;;12.40;66.70;;;;;;2102761;28;20030;-75
2020/12/15 03:15:39;;;;;;;3.75;3.33;;;12.40;66.70;;;;;;2103656;28;20115;-75
2020/12/15 03:16:40;;;;;;;3.47;3.17;;;12.40;66.70;;;;;;2112216;28;20028;-75
2020/12/15 03:17:40;;;;;;;4.32;3.28;;;12.40;66.70;;;;;;2112135;28;20645;-76
2020/12/15 03:18:41;;;;;;;3.72;3.25;;;12.40;66.70;;;;;;2111742;28;20099;-75
2020/12/15 03:19:42;;;;;;;3.75;3.10;;;12.40;66.80;;;;;;2112487;28;20111;-75
2020/12/15 03:20:47;;;;;;;3.22;2.90;;;12.30;66.80;;;;;;2112450;28;20055;-74
2020/12/15 03:21:47;;;;;;;3.78;3.40;;;12.30;66.80;;;;;;2112099;28;20023;-76
2020/12/15 03:22:48;;;;;;;4.13;3.10;;;12.30;66.80;;;;;;2112634;28;20029;-75
2020/12/15 03:23:48;;;;;;;4.10;3.25;;;12.30;66.90;;;;;;2112685;28;20015;-75
2020/12/15 03:24:49;;;;;;;4.28;3.15;;;12.30;66.90;;;;;;2112803;28;20035;-75
2020/12/15 03:25:52;;;;;;;6.07;3.25;;;12.30;66.90;;;;;;2112300;28;20024;-75
2020/12/15 03:26:53;;;;;;;5.45;3.17;;;12.30;67.00;;;;;;2112068;28;20023;-73
2020/12/15 03:27:53;;;;;;;4.60;3.35;;;12.30;67.00;;;;;;2112766;28;20028;-75
2020/12/15 03:28:54;;;;;;;4.60;3.30;;;12.30;67.00;;;;;;2111744;28;20035;-75
2020/12/15 03:29:55;;;;;;;6.40;3.72;;;12.30;67.00;;;;;;2101005;28;20032;-74
2020/12/15 03:30:55;;;;;;;4.35;3.05;;;12.30;67.10;;;;;;2103578;28;20028;-75
2020/12/15 03:31:56;;;;;;;3.22;2.85;;;12.30;67.20;;;;;;2103004;28;20036;-72
2020/12/15 03:32:56;;;;;;;4.30;3.25;;;12.30;67.20;;;;;;2111774;28;20028;-75
2020/12/15 03:33:57;;;;;;;3.30;3.00;;;12.30;67.20;;;;;;2113012;28;20051;-75
2020/12/15 03:34:58;;;;;;;4.13;3.20;;;12.30;67.30;;;;;;2100047;28;20121;-75
2020/12/15 03:35:58;;;;;;;3.13;2.80;;;12.30;67.30;;;;;;2100095;28;20036;-75
2020/12/15 03:36:59;;;;;;;3.50;2.97;;;12.30;67.30;;;;;;2112537;28;20073;-75
2020/12/15 03:37:59;;;;;;;5.05;2.97;;;12.30;67.40;;;;;;2103374;28;20370;-75
2020/12/15 03:39:00;;;;;;;3.95;3.10;;;12.30;67.40;;;;;;2103776;28;20089;-75
2020/12/15 03:40:00;;;;;;;5.15;3.22;;;12.30;67.40;;;;;;2112801;28;20020;-75
2020/12/15 03:41:01;;;;;;;3.63;3.30;;;12.30;67.40;;;;;;2112306;28;20024;-75
2020/12/15 03:42:02;;;;;;;4.68;3.10;;;12.20;67.40;;;;;;2112303;28;20030;-75
2020/12/15 03:43:03;;;;;;;2.88;2.67;;;12.30;67.50;;;;;;2112400;28;20032;-75
2020/12/15 03:44:03;;;;;;;3.80;3.15;;;12.30;67.60;;;;;;2111873;28;20820;-75
2020/12/15 03:45:05;;;;;;;3.97;3.13;;;12.30;67.50;;;;;;2112803;28;20032;-75
2020/12/15 03:46:05;;;;;;;4.30;3.20;;;12.30;67.50;;;;;;2111502;28;20108;-75
2020/12/15 03:47:06;;;;;;;4.50;3.08;;;12.30;67.50;;;;;;2112593;28;20148;-75
2020/12/15 03:48:06;;;;;;;4.55;3.05;;;12.30;67.50;;;;;;2112648;28;20053;-75
2020/12/15 03:49:07;;;;;;;4.47;3.50;;;12.30;67.50;;;;;;2114298;28;20035;-75
2020/12/15 03:50:11;;;;;;;3.17;2.65;;;12.30;67.40;;;;;;2114324;28;20069;-74
2020/12/15 03:51:11;;;;;;;5.35;3.00;;;12.30;67.50;;;;;;2113999;28;20384;-75
2020/12/15 03:52:12;;;;;;;3.00;2.70;;;12.20;67.40;;;;;;2114043;28;20050;-75
2020/12/15 03:53:12;;;;;;;3.13;2.83;;;12.20;67.40;;;;;;2113840;28;20098;-75
2020/12/15 03:54:13;;;;;;;3.70;2.67;;;12.20;67.40;;;;;;2105639;28;20040;-75
2020/12/15 03:55:13;;;;;;;4.15;3.10;;;12.20;67.40;;;;;;2105262;28;20455;-75
2020/12/15 03:56:14;;;;;;;8.30;3.55;;;12.20;67.40;;;;;;2114010;28;20517;-74
2020/12/15 03:57:15;;;;;;;3.00;2.70;;;12.20;67.50;;;;;;2105180;28;20467;-75
2020/12/15 03:58:17;;;;;;;4.10;2.45;;;12.20;67.50;;;;;;2104930;28;20024;-75
2020/12/15 03:59:17;;;;;;;3.85;3.00;;;12.20;67.50;;;;;;2113472;28;20535;-75
2020/12/15 04:00:19;;;;;;;3.20;2.88;;;12.20;67.50;;;;;;2114385;28;20020;-75
2020/12/15 04:01:20;;;;;;;6.22;3.30;;;12.20;67.50;;;;;;2112876;28;20028;-74
2020/12/15 04:02:20;;;;;;;3.70;3.15;;;12.20;67.60;;;;;;2113719;28;20019;-75
2020/12/15 04:03:21;;;;;;;4.40;2.70;;;12.20;67.60;;;;;;2104859;28;20070;-75
2020/12/15 04:04:21;;;;;;;4.47;2.78;;;12.20;67.70;;;;;;2104734;28;20111;-74
2020/12/15 04:05:22;;;;;;;4.43;2.90;;;12.20;67.70;;;;;;2114291;28;20020;-75
2020/12/15 04:06:22;;;;;;;3.25;2.45;;;12.20;67.80;;;;;;2113699;28;20036;-75
2020/12/15 04:07:23;;;;;;;4.57;2.80;;;12.20;67.80;;;;;;2105104;28;20031;-75
2020/12/15 04:08:27;;;;;;;6.18;3.15;;;12.20;67.80;;;;;;2104764;28;20122;-75
2020/12/15 04:09:27;;;;;;;4.80;3.10;;;12.20;67.80;;;;;;2113853;28;20351;-75
2020/12/15 04:10:28;;;;;;;3.85;2.70;;;12.20;67.90;;;;;;2113662;28;20078;-76
2020/12/15 04:11:28;;;;;;;3.33;3.03;;;12.20;67.90;;;;;;2105249;28;20036;-75
2020/12/15 04:12:29;;;;;;;3.25;2.42;;;12.20;68.00;;;;;;2104612;28;20047;-75
2020/12/15 04:13:29;;;;;;;2.65;2.22;;;12.20;68.00;;;;;;2113558;28;20040;-74
2020/12/15 04:14:30;;;;;;;5.68;3.08;;;12.20;68.10;;;;;;2113590;28;20057;-75
2020/12/15 04:15:31;;;;;;;9.45;3.65;;;12.20;68.10;;;;;;2113678;28;20509;-75
2020/12/15 04:16:31;;;;;;;4.00;3.10;;;12.20;68.10;;;;;;2112930;28;20469;-75
2020/12/15 04:17:36;;;;;;;3.05;2.70;;;12.20;68.20;;;;;;2113830;28;20485;-75
2020/12/15 04:18:36;;;;;;;4.90;2.90;;;12.20;68.20;;;;;;2113443;28;20457;-75
2020/12/15 04:19:37;;;;;;;4.07;2.55;;;12.20;68.20;;;;;;2113990;28;20091;-75
2020/12/15 04:20:38;;;;;;;5.05;2.97;;;12.30;68.20;;;;;;2113900;28;20449;-75
2020/12/15 04:21:38;;;;;;;4.32;3.08;;;12.20;68.20;;;;;;2113695;28;20031;-75
2020/12/15 04:22:39;;;;;;;6.05;3.50;;;12.20;68.20;;;;;;2113098;28;20499;-75
2020/12/15 04:23:40;;;;;;;3.10;2.80;;;12.30;68.20;;;;;;2113747;28;20672;-75
2020/12/15 04:24:40;;;;;;;6.55;3.35;;;12.30;68.20;;;;;;2113376;28;20027;-75
2020/12/15 04:25:52;;;;;;;7.97;3.50;;;12.30;68.20;;;;;;2113772;28;20032;-75
2020/12/15 04:26:53;;;;;;;5.57;3.25;;;12.30;68.30;;;;;;2113933;28;20023;-75
2020/12/15 04:27:53;;;;;;;4.32;2.75;;;12.30;68.20;;;;;;2113571;28;20027;-75
2020/12/15 04:28:54;;;;;;;5.45;3.22;;;12.30;68.20;;;;;;2113636;28;20113;-75
2020/12/15 04:29:55;;;;;;;5.30;3.05;;;12.30;68.20;;;;;;2113457;28;20791;-75
2020/12/15 04:30:55;;;;;;;5.38;3.28;;;12.30;68.20;;;;;;2113463;28;20020;-75
2020/12/15 04:31:56;;;;;;;3.20;2.75;;;12.30;68.30;;;;;;2113630;28;20075;-75
2020/12/15 04:32:57;;;;;;;4.88;2.65;;;12.30;68.30;;;;;;2113481;28;20027;-75
2020/12/15 04:33:57;;;;;;;3.70;3.17;;;12.30;68.30;;;;;;2113775;28;20024;-75
2020/12/15 04:34:58;;;;;;;5.07;3.38;;;12.30;68.30;;;;;;2113856;28;20024;-75
2020/12/15 04:35:58;;;;;;;4.43;3.03;;;12.30;68.30;;;;;;2113346;28;20050;-75
2020/12/15 04:36:59;;;;;;;3.13;2.78;;;12.30;68.30;;;;;;2113717;28;20012;-75
2020/12/15 04:37:59;;;;;;;5.55;3.22;;;12.30;68.30;;;;;;2113663;28;20089;-75
2020/12/15 04:39:00;;;;;;;7.28;2.92;;;12.30;68.50;;;;;;2113217;28;20035;-75
2020/12/15 04:40:01;;;;;;;5.38;3.25;;;12.30;68.40;;;;;;2104554;28;20055;-75
2020/12/15 04:41:01;;;;;;;4.40;2.83;;;12.30;68.40;;;;;;2096694;28;20063;-75
2020/12/15 04:42:02;;;;;;;5.63;3.00;;;12.30;68.40;;;;;;2102138;28;20032;-75
2020/12/15 04:43:05;;;;;;;2.95;2.75;;;12.30;68.30;;;;;;2113269;28;20016;-74
2020/12/15 04:44:08;;;;;;;5.53;3.53;;;12.40;68.50;;;;;;2105037;28;20778;-75
2020/12/15 04:45:09;;;;;;;4.50;3.35;;;12.40;68.50;;;;;;2104935;28;20024;-75
2020/12/15 04:46:11;;;;;;;3.13;2.78;;;12.30;68.40;;;;;;2104061;28;20048;-74
2020/12/15 04:47:23;;;;;;;5.00;3.08;;;12.40;68.50;;;;;;2105231;28;20446;-74
2020/12/15 04:48:24;;;;;;;3.15;2.80;;;12.30;68.40;;;;;;2113832;28;20027;-74
2020/12/15 04:49:31;;;;;;;5.43;3.15;;;12.40;68.40;;;;;;2113616;28;20477;-74
2020/12/15 04:50:34;;;;;;;3.47;2.97;;;12.30;68.40;;;;;;2113529;28;20035;-75
2020/12/15 04:51:57;;;;;;;6.20;3.10;;;12.40;68.50;;;;;;2113701;28;20024;-74
2020/12/15 04:53:02;;;;;;;3.30;3.00;;;12.40;68.60;;;;;;2113241;28;20090;-74
2020/12/15 04:54:03;;;;;;;5.15;3.10;;;12.40;68.40;;;;;;2113472;28;20088;-74
2020/12/15 04:55:04;;;;;;;3.90;3.13;;;12.30;68.30;;;;;;2113160;28;20031;-74
2020/12/15 04:56:30;;;;;;;3.63;3.20;;;12.40;68.40;;;;;;2113188;28;20028;-74
2020/12/15 04:57:34;;;;;;;3.65;2.78;;;12.40;68.70;;;;;;2113568;28;20042;-74
2020/12/15 04:58:35;;;;;;;5.80;3.00;;;12.40;68.50;;;;;;2104172;28;20039;-74
2020/12/15 04:59:36;;;;;;;4.47;3.85;;;12.40;68.50;;;;;;2096122;28;20036;-74
2020/12/15 05:00:37;;;;;;;6.20;3.22;;;12.40;68.40;;;;;;2103750;28;20099;-74
2020/12/15 05:01:39;;;;;;;4.22;3.47;;;12.40;68.50;;;;;;2112254;28;20032;-75
2020/12/15 05:02:42;;;;;;;3.72;3.25;;;12.40;68.50;;;;;;2104382;28;20059;-74
2020/12/15 05:03:44;;;;;;;5.05;3.38;;;12.40;68.50;;;;;;2104626;28;20020;-75
2020/12/15 05:04:44;;;;;;;4.45;3.38;;;12.40;68.50;;;;;;2113140;28;20024;-74
2020/12/15 05:05:46;;;;;;;3.65;3.22;;;12.40;68.50;;;;;;2113644;27;20031;-74
2020/12/15 05:06:52;;;;;;;4.35;3.47;;;12.40;68.50;;;;;;2112716;28;20099;-75
2020/12/15 05:07:54;;;;;;;5.07;3.47;;;12.40;68.60;;;;;;2103861;28;20028;-74
2020/12/15 05:08:54;;;;;;;6.70;4.18;;;12.40;68.50;;;;;;2104857;28;20059;-75
2020/12/15 05:09:55;;;;;;;7.43;3.35;;;12.50;68.60;;;;;;2114962;28;20466;-75
2020/12/15 05:10:55;;;;;;;4.10;3.70;;;12.40;68.50;;;;;;2097227;28;20036;-75
2020/12/15 05:11:56;;;;;;;5.15;4.30;;;12.40;68.50;;;;;;2097727;28;20099;-74
2020/12/15 05:12:57;;;;;;;5.20;3.83;;;12.40;68.50;;;;;;2112487;28;20020;-74
2020/12/15 05:13:58;;;;;;;5.15;3.92;;;12.50;68.60;;;;;;2101440;28;20041;-74
2020/12/15 05:14:59;;;;;;;5.05;3.50;;;12.50;68.60;;;;;;2097436;28;20070;-75
2020/12/15 05:16:00;;;;;;;4.93;4.03;;;12.50;68.60;;;;;;2105234;28;20446;-75
2020/12/15 05:17:01;;;;;;;5.57;4.32;;;12.50;68.60;;;;;;2114117;28;20046;-74
2020/12/15 05:18:03;;;;;;;4.13;3.60;;;12.50;68.60;;;;;;2105548;28;20034;-75
2020/12/15 05:19:05;;;;;;;4.55;3.97;;;12.50;68.60;;;;;;2105852;28;20107;-75